Bayou Vista, Louisiana
Current Conditions -  °F | °C
As of 3:55 AM on Sunday 23 Nov 2014 (Local Time) from KPTN Reporting Station
Overcast Overcast  
Wind Chill: 64°   Ceiling: 500
Heat Index: 64°   Visibility: 10mi
Dew Point: 64°   Wind: 7mph
Humidity: 100%   Direction: 60°ENE
Pressure: 29.74"   Gusts: NA
Location:  29.8739°N, 91.2977°W
Report Text: KPTN 230955Z AUTO 06006KT 10SM OVC005 18/18 A2974 RMK AO1 LTG DSNT S
Loading
Personal Weather Stations






























Interactive Weather Map New forecast layout! Learn more

10-Day Weather Forecast

Advertisements
Track Severe Weather on mobile